Minot, ND

12:25 PM CDT on July 30, 2016 (GMT -0500)
Edgeview Estates | | Change Station

Elev 1752 ft 48.21 °N, 101.33 °W | Updated 8 seconds ago

Clear
Clear
80.0 °F
Feels Like 81 °F
N
2.0
Wind Variable Wind from NNE
Gusts 2.0 mph

Today
High -- | Low -- °F
--% Chance of Precip.
Yesterday
High -- | Low -- °F
Precip. -- in
Pressure 29.85 in
Visibility 10.0 miles
Clouds Clear
Heat Index 81 °F
Dew Point 62 °F
Humidity 54%
Rainfall 0.11 in
Snow Depth Not available.
6:18 AM 9:23 PM
Waning Crescent, 12% visible
METAR KMOT 301654Z 00000KT 10SM CLR 28/14 A2987 RMK AO2 SLP106 T02830144
Pressure 29.85 in
Visibility 10.0 miles
Clouds Clear
Heat Index 81 °F
Dew Point 62 °F
Humidity 54%
Rainfall 0.11 in
Snow Depth Not available.
6:18 AM 9:23 PM
Waning Crescent, 12% visible
METAR KMOT 301654Z 00000KT 10SM CLR 28/14 A2987 RMK AO2 SLP106 T02830144

10-Day Weather Forecast

Almanac

Astronomy

Jul. 30, 2016 Rise Set
Actual Time
Civil Twilight
Nautical Twilight
Astronomical Twilight
Moon
Length of Visible Light
Length of Day
Tomorrow will be .
, % of the Moon is Illuminated

Today's Extremes

State Highs State Lows

Community

WunderPhotos

Upload Photos

1,928,600 photos uploaded!

WunderBlog® & News

Nearby

Air Quality

  Air Quality AQ Index Pollutant
Not available.

Snow Depth

Station Depth Elevation

Earthquake Activity

City Distance Mag. Time & Date
Minimum magnitude displayed is 2.5.

Coastal Water Temperatures

Place Temperature

Stations

Nearby Weather Stations

Station Location Temp. Windchill Dew Point Humidity Wind Precip. Elev Updated Type
                   

Watches & Warnings

There are currently no watches in effect.